createdAt,value
2018-04-02T00:00:44.589Z,53.33
2018-04-02T00:03:13.058Z,54.70
2018-04-02T00:05:41.461Z,53.80
2018-04-02T00:08:09.910Z,52.63
2018-04-02T00:10:38.390Z,52.13
2018-04-02T00:13:06.821Z,47.17
2018-04-02T00:15:35.257Z,50.23
2018-04-02T00:18:03.730Z,48.20
2018-04-02T00:20:32.145Z,49.80
2018-04-02T00:23:00.549Z,48.83
2018-04-02T00:25:28.990Z,50.63
2018-04-02T00:27:57.418Z,49.27
2018-04-02T00:30:25.860Z,41.20
2018-04-02T00:32:54.318Z,53.47
2018-04-02T00:35:22.747Z,48.93
2018-04-02T00:37:51.162Z,52.53
2018-04-02T00:40:19.651Z,50.83
2018-04-02T00:42:48.081Z,46.80
2018-04-02T00:45:16.494Z,45.47
2018-04-02T00:47:44.962Z,46.07
2018-04-02T00:50:13.398Z,46.90
2018-04-02T00:52:41.841Z,45.33
2018-04-02T00:55:10.322Z,46.93
2018-04-02T00:57:38.756Z,44.43
2018-04-02T01:00:07.218Z,39.17
2018-04-02T01:02:35.691Z,44.83
2018-04-02T01:05:04.102Z,40.27
2018-04-02T01:07:32.514Z,40.73
2018-04-02T01:10:00.957Z,38.17
2018-04-02T01:12:29.401Z,38.30
2018-04-02T01:14:57.834Z,38.33
2018-04-02T01:17:26.302Z,39.07
2018-04-02T01:19:54.730Z,36.03
2018-04-02T01:22:23.158Z,37.27
2018-04-02T01:24:51.627Z,37.80
2018-04-02T01:27:20.066Z,41.47
2018-04-02T01:29:48.482Z,38.63
2018-04-02T01:32:16.950Z,41.33
2018-04-02T01:34:45.379Z,40.73
2018-04-02T01:37:13.793Z,34.30
2018-04-02T01:39:42.261Z,36.63
2018-04-02T01:42:10.679Z,38.23
2018-04-02T01:44:39.086Z,39.93
2018-04-02T01:47:07.553Z,39.60
2018-04-02T01:49:35.989Z,41.77
2018-04-02T01:52:04.415Z,39.13
2018-04-02T01:54:32.862Z,34.87
2018-04-02T01:57:01.265Z,41.30
2018-04-02T01:59:29.673Z,38.23
2018-04-02T02:01:58.126Z,46.23
2018-04-02T02:04:26.557Z,50.77
2018-04-02T02:06:54.980Z,55.23
2018-04-02T02:09:23.433Z,51.17
2018-04-02T02:11:51.857Z,52.03
2018-04-02T02:14:20.294Z,49.13
2018-04-02T02:16:48.761Z,54.47
2018-04-02T02:19:17.180Z,49.60
2018-04-02T02:21:45.626Z,59.47
2018-04-02T02:24:14.129Z,52.93
2018-04-02T02:26:42.565Z,50.60
2018-04-02T02:29:10.994Z,58.30
2018-04-02T02:31:39.450Z,54.50
2018-04-02T02:34:07.877Z,54.23
2018-04-02T02:36:36.311Z,56.77
2018-04-02T02:39:04.846Z,53.67
2018-04-02T02:41:33.265Z,52.20
2018-04-02T02:44:01.691Z,59.20
2018-04-02T02:46:30.165Z,52.37
2018-04-02T02:48:58.606Z,50.57
2018-04-02T02:51:27.045Z,52.07
2018-04-02T02:53:55.539Z,53.17
2018-04-02T02:56:23.984Z,55.07
2018-04-02T02:58:52.422Z,54.30
2018-04-02T03:01:20.911Z,53.97
2018-04-02T03:03:49.354Z,61.03
2018-04-02T03:06:17.799Z,58.33
2018-04-02T03:08:46.278Z,57.87
2018-04-02T03:11:14.721Z,49.57
2018-04-02T03:13:43.193Z,64.20
2018-04-02T03:16:11.669Z,61.60
2018-04-02T03:18:40.102Z,55.53
2018-04-02T03:21:08.538Z,57.07
2018-04-02T03:23:37.009Z,58.97
2018-04-02T03:26:05.445Z,55.73
2018-04-02T03:28:33.881Z,52.97
2018-04-02T03:31:02.377Z,56.43
2018-04-02T03:33:30.834Z,53.90
2018-04-02T03:35:59.273Z,49.53
2018-04-02T03:38:27.762Z,56.20
2018-04-02T03:40:56.207Z,52.00
2018-04-02T03:43:24.638Z,52.73
2018-04-02T03:45:53.113Z,54.27
2018-04-02T03:48:21.551Z,49.87
2018-04-02T03:50:50.002Z,57.77
2018-04-02T03:53:18.494Z,54.97
2018-04-02T03:55:46.938Z,59.27
2018-04-02T03:58:15.380Z,62.33
2018-04-02T04:00:43.862Z,61.37
2018-04-02T04:03:12.302Z,56.77
2018-04-02T04:05:40.741Z,57.30
2018-04-02T04:08:09.233Z,58.57
2018-04-02T04:10:37.673Z,53.47
2018-04-02T04:13:06.123Z,52.73
2018-04-02T04:15:34.602Z,58.83
2018-04-02T04:18:03.035Z,62.37
2018-04-02T04:20:31.474Z,56.90
2018-04-02T04:22:59.954Z,61.77
2018-04-02T04:25:28.390Z,61.07
2018-04-02T04:27:56.825Z,60.80
2018-04-02T04:30:25.298Z,62.97
2018-04-02T04:32:53.730Z,55.47
2018-04-02T04:35:22.170Z,61.57
2018-04-02T04:37:50.642Z,56.87
2018-04-02T04:40:19.102Z,54.40
2018-04-02T04:42:47.550Z,60.73
2018-04-02T04:45:16.041Z,56.37
2018-04-02T04:47:44.486Z,59.33
2018-04-02T04:50:12.937Z,60.97
2018-04-02T04:52:41.429Z,57.53
2018-04-02T04:55:09.875Z,58.97
2018-04-02T04:57:38.330Z,49.53
2018-04-02T05:00:06.813Z,59.20
2018-04-02T05:02:35.274Z,60.17
2018-04-02T05:05:03.738Z,61.57
2018-04-02T05:07:32.217Z,68.47
2018-04-02T05:10:00.656Z,95.90
2018-04-02T05:12:29.094Z,75.17
2018-04-02T05:14:57.583Z,72.23
2018-04-02T05:17:26.017Z,65.27
2018-04-02T05:19:54.462Z,67.30
2018-04-02T05:22:22.946Z,60.90
2018-04-02T05:24:51.404Z,55.23
2018-04-02T05:27:19.849Z,60.50
2018-04-02T05:29:48.327Z,61.77
2018-04-02T05:32:16.762Z,60.73
2018-04-02T05:34:45.202Z,57.90
2018-04-02T05:37:13.710Z,63.93
2018-04-02T05:39:42.165Z,66.93
2018-04-02T05:42:10.606Z,54.83
2018-04-02T05:44:39.093Z,58.77
2018-04-02T05:47:07.525Z,64.97
2018-04-02T05:49:35.966Z,60.30
2018-04-02T05:52:04.442Z,62.10
2018-04-02T05:54:32.876Z,61.33
2018-04-02T05:57:01.334Z,57.93
2018-04-02T05:59:29.827Z,60.30
2018-04-02T06:01:58.290Z,65.13
2018-04-02T06:04:26.727Z,63.70
2018-04-02T06:06:55.207Z,62.73
2018-04-02T06:09:23.646Z,62.17
2018-04-02T06:11:52.106Z,74.13
2018-04-02T06:14:20.598Z,77.43
2018-04-02T06:16:49.037Z,82.77
2018-04-02T06:19:17.473Z,76.47
2018-04-02T06:21:45.960Z,80.47
2018-04-02T06:24:14.397Z,70.90
2018-04-02T06:26:42.834Z,68.60
2018-04-02T06:29:11.313Z,70.73
2018-04-02T06:31:39.814Z,69.50
2018-04-02T06:34:08.226Z,65.73
2018-04-02T06:36:36.719Z,71.33
2018-04-02T06:39:05.203Z,70.17
2018-04-02T06:41:33.637Z,73.13
2018-04-02T06:44:02.113Z,76.10
2018-04-02T06:46:30.570Z,77.67
2018-04-02T06:48:59.011Z,75.23
2018-04-02T06:51:27.508Z,67.43
2018-04-02T06:53:55.949Z,70.87
2018-04-02T06:56:24.381Z,70.37
2018-04-02T06:58:52.862Z,69.57
2018-04-02T07:01:21.321Z,71.97
2018-04-02T07:03:49.766Z,76.83
2018-04-02T07:06:18.258Z,82.37
2018-04-02T07:08:46.689Z,76.03
2018-04-02T07:11:15.133Z,71.70
2018-04-02T07:13:43.614Z,82.47
2018-04-02T07:16:12.045Z,92.67
2018-04-02T07:18:40.479Z,86.07
2018-04-02T07:21:08.980Z,87.00
2018-04-02T07:23:37.422Z,77.23
2018-04-02T07:26:05.870Z,96.00
2018-04-02T07:28:34.347Z,91.43
2018-04-02T07:31:02.793Z,95.57
2018-04-02T07:33:31.229Z,92.77
2018-04-02T07:35:59.725Z,90.03
2018-04-02T07:38:28.172Z,103.17
2018-04-02T07:40:56.615Z,101.00
2018-04-02T07:43:25.096Z,96.87
2018-04-02T07:45:53.539Z,100.27
2018-04-02T07:48:22.002Z,100.23
2018-04-02T07:50:50.482Z,102.93
2018-04-02T07:53:18.936Z,100.63
2018-04-02T07:55:47.374Z,97.23
2018-04-02T07:58:15.862Z,109.73
2018-04-02T08:00:44.310Z,106.43
2018-04-02T08:03:12.770Z,99.87
2018-04-02T08:05:41.270Z,107.53
2018-04-02T08:08:09.709Z,109.43
2018-04-02T08:10:38.150Z,95.83
2018-04-02T08:13:06.625Z,94.60
2018-04-02T08:15:35.066Z,98.57
2018-04-02T08:18:03.546Z,96.70
2018-04-02T08:20:32.057Z,84.70
2018-04-02T08:23:00.517Z,98.43
2018-04-02T08:25:28.958Z,96.00
2018-04-02T08:27:57.454Z,95.70
2018-04-02T08:30:25.889Z,99.53
2018-04-02T08:32:54.334Z,100.30
2018-04-02T08:35:22.815Z,95.30
2018-04-02T08:37:51.254Z,92.77
2018-04-02T08:40:19.715Z,91.90
2018-04-02T08:42:48.227Z,94.37
2018-04-02T08:45:16.665Z,96.67
2018-04-02T08:47:45.097Z,98.80
2018-04-02T08:50:13.582Z,88.53
2018-04-02T08:52:42.017Z,92.97
2018-04-02T08:55:10.450Z,83.73
2018-04-02T08:57:38.954Z,86.67
2018-04-02T09:00:07.406Z,94.67
2018-04-02T09:02:35.847Z,78.93
2018-04-02T09:05:04.341Z,74.40
2018-04-02T09:07:32.783Z,77.20
2018-04-02T09:10:01.225Z,75.40
2018-04-02T09:12:29.702Z,73.93
2018-04-02T09:14:58.146Z,72.37
2018-04-02T09:17:26.586Z,72.93
2018-04-02T09:19:55.079Z,75.80
2018-04-02T09:22:23.549Z,72.20
2018-04-02T09:24:52.049Z,73.00
2018-04-02T09:27:20.530Z,70.37
2018-04-02T09:29:48.986Z,73.63
2018-04-02T09:32:17.429Z,80.27
2018-04-02T09:34:45.937Z,70.93
2018-04-02T09:37:14.377Z,68.63
2018-04-02T09:39:42.818Z,64.63
2018-04-02T09:42:11.299Z,65.30
2018-04-02T09:44:39.747Z,57.57
2018-04-02T09:47:08.192Z,61.07
2018-04-02T09:49:36.685Z,61.73
2018-04-02T09:52:05.126Z,67.23
2018-04-02T09:54:33.563Z,65.10
2018-04-02T09:57:02.039Z,64.67
2018-04-02T09:59:30.506Z,64.60
2018-04-02T10:01:58.992Z,60.53
2018-04-02T10:04:31.527Z,60.10
2018-04-02T10:06:59.953Z,56.03
2018-04-02T10:09:28.390Z,60.37
2018-04-02T10:11:56.877Z,61.53
2018-04-02T10:14:25.315Z,58.83
2018-04-02T10:16:53.751Z,53.93
2018-04-02T10:19:22.242Z,62.60
2018-04-02T10:21:50.677Z,58.17
2018-04-02T10:24:19.118Z,57.70
2018-04-02T10:26:47.606Z,63.67
2018-04-02T10:29:16.051Z,56.07
2018-04-02T10:31:44.499Z,53.53
2018-04-02T10:34:12.992Z,52.17
2018-04-02T10:36:41.425Z,54.57
2018-04-02T10:39:09.866Z,50.73
2018-04-02T10:41:38.395Z,52.90
2018-04-02T10:44:07.057Z,52.33
2018-04-02T10:46:35.498Z,47.80
2018-04-02T10:49:03.978Z,50.10
2018-04-02T10:51:32.414Z,49.70
2018-04-02T10:54:00.853Z,53.83
2018-04-02T10:56:29.361Z,45.63
2018-04-02T10:58:57.801Z,46.37
2018-04-02T11:01:26.246Z,43.70
2018-04-02T11:03:54.733Z,43.93
2018-04-02T11:06:23.171Z,37.70
2018-04-02T11:08:51.611Z,39.77
2018-04-02T11:11:20.086Z,43.93
2018-04-02T11:13:48.530Z,43.80
2018-04-02T11:16:16.988Z,45.40
2018-04-02T11:18:45.467Z,46.33
2018-04-02T11:21:13.911Z,49.37
2018-04-02T11:23:42.362Z,179.53
2018-04-02T11:26:10.894Z,43.03
2018-04-02T11:28:39.342Z,51.30
2018-04-02T11:31:07.798Z,47.97
2018-04-02T11:33:36.289Z,46.67
2018-04-02T11:36:04.749Z,45.27
2018-04-02T11:38:33.196Z,50.47
2018-04-02T11:41:01.831Z,47.50
2018-04-02T11:43:30.287Z,48.17
2018-04-02T11:45:58.729Z,46.77
2018-04-02T11:48:27.211Z,44.90
2018-04-02T11:50:55.649Z,45.03
2018-04-02T11:53:24.093Z,46.27
2018-04-02T11:55:52.582Z,43.20
2018-04-02T11:58:21.022Z,44.27
2018-04-02T12:00:49.481Z,41.13
2018-04-02T12:03:17.964Z,41.20
2018-04-02T12:05:46.398Z,40.57
2018-04-02T12:08:14.835Z,41.23
2018-04-02T12:10:43.299Z,38.67
2018-04-02T12:13:11.730Z,34.80
2018-04-02T12:15:40.171Z,35.93
2018-04-02T12:18:08.662Z,38.00
2018-04-02T12:20:37.104Z,36.10
2018-04-02T12:23:05.551Z,36.17
2018-04-02T12:25:34.038Z,35.33
2018-04-02T12:28:02.462Z,35.37
2018-04-02T12:30:30.875Z,35.43
2018-04-02T12:32:59.349Z,34.10
2018-04-02T12:35:27.780Z,37.07
2018-04-02T12:37:56.217Z,33.67
2018-04-02T12:40:24.683Z,31.83
2018-04-02T12:42:53.141Z,28.23
2018-04-02T12:45:21.557Z,32.23
2018-04-02T12:47:50.021Z,30.93
2018-04-02T12:50:18.434Z,34.23
2018-04-02T12:52:46.869Z,31.50
2018-04-02T12:55:15.330Z,33.70
2018-04-02T12:57:43.738Z,33.80
2018-04-02T13:00:12.149Z,44.33
2018-04-02T13:02:40.618Z,33.83
2018-04-02T13:05:09.033Z,30.23
2018-04-02T13:07:37.443Z,36.90
2018-04-02T13:10:05.897Z,30.50
2018-04-02T13:12:34.317Z,30.77
2018-04-02T13:15:02.733Z,27.97
2018-04-02T13:17:31.206Z,29.10
2018-04-02T13:19:59.614Z,30.23
2018-04-02T13:22:28.029Z,28.53
2018-04-02T13:24:56.489Z,25.90
2018-04-02T13:27:24.898Z,28.33
2018-04-02T13:29:53.314Z,27.00
2018-04-02T13:32:21.774Z,28.00
2018-04-02T13:34:50.202Z,26.93
2018-04-02T13:37:18.613Z,26.23
2018-04-02T13:39:47.069Z,25.53
2018-04-02T13:42:15.493Z,28.70
2018-04-02T13:44:43.901Z,23.23
2018-04-02T13:47:12.370Z,23.20
2018-04-02T13:49:40.781Z,22.40
2018-04-02T13:52:09.194Z,20.70
2018-04-02T13:54:37.660Z,21.07
2018-04-02T13:57:06.074Z,21.27
2018-04-02T13:59:34.489Z,18.13
2018-04-02T14:02:02.940Z,22.03
2018-04-02T14:04:31.353Z,22.83
2018-04-02T14:06:59.780Z,21.07
2018-04-02T14:09:28.258Z,23.70
2018-04-02T14:11:56.676Z,23.37
2018-04-02T14:14:25.097Z,23.50
2018-04-02T14:16:53.563Z,22.07
2018-04-02T14:19:21.985Z,21.70
2018-04-02T14:21:50.397Z,25.87
2018-04-02T14:24:18.862Z,23.00
2018-04-02T14:26:47.280Z,23.30
2018-04-02T14:29:15.718Z,23.30
2018-04-02T14:31:44.169Z,23.00
2018-04-02T14:34:12.588Z,21.83
2018-04-02T14:36:41.002Z,23.40
2018-04-02T14:39:09.465Z,22.97
2018-04-02T14:41:37.882Z,24.43
2018-04-02T14:44:06.294Z,22.90
2018-04-02T14:46:34.762Z,24.17
2018-04-02T14:49:03.184Z,24.50
2018-04-02T14:51:31.601Z,23.30
2018-04-02T14:54:00.054Z,23.87
2018-04-02T14:56:28.465Z,21.57
2018-04-02T14:58:56.886Z,21.93
2018-04-02T15:01:25.357Z,23.13
2018-04-02T15:03:53.775Z,23.73
2018-04-02T15:06:22.189Z,19.83
2018-04-02T15:08:50.814Z,21.07
2018-04-02T15:11:19.230Z,23.17
2018-04-02T15:13:47.637Z,20.50
2018-04-02T15:16:16.102Z,20.03
2018-04-02T15:18:44.518Z,19.63
2018-04-02T15:21:12.935Z,24.30
2018-04-02T15:23:41.389Z,23.17
2018-04-02T15:26:09.806Z,23.20
2018-04-02T15:28:38.213Z,22.40
2018-04-02T15:31:06.678Z,23.47
2018-04-02T15:33:35.087Z,22.97
2018-04-02T15:36:03.502Z,23.93
2018-04-02T15:38:31.965Z,23.73
2018-04-02T15:41:00.390Z,30.10
2018-04-02T15:43:28.847Z,22.63
2018-04-02T15:45:57.309Z,20.37
2018-04-02T15:48:25.739Z,20.47
2018-04-02T15:50:54.172Z,19.20
2018-04-02T15:53:22.662Z,18.00
2018-04-02T15:55:51.071Z,22.17
2018-04-02T15:58:19.488Z,18.50
2018-04-02T16:00:47.954Z,21.80
2018-04-02T16:03:16.363Z,17.47
2018-04-02T16:05:44.783Z,19.60
2018-04-02T16:08:13.251Z,20.20
2018-04-02T16:10:41.712Z,20.47
2018-04-02T16:13:10.112Z,18.30
2018-04-02T16:15:38.594Z,15.87
2018-04-02T16:18:07.059Z,18.50
2018-04-02T16:20:35.473Z,17.03
2018-04-02T16:23:03.921Z,16.10
2018-04-02T16:25:32.329Z,17.53
2018-04-02T16:28:00.744Z,17.27
2018-04-02T16:30:29.194Z,17.50
2018-04-02T16:32:57.602Z,19.03
2018-04-02T16:35:26.020Z,16.50
2018-04-02T16:37:54.481Z,18.17
2018-04-02T16:40:22.895Z,16.23
2018-04-02T16:42:51.329Z,17.07
2018-04-02T16:45:19.805Z,16.00
2018-04-02T16:47:48.253Z,16.93
2018-04-02T16:50:16.665Z,16.93
2018-04-02T16:52:45.133Z,17.83
2018-04-02T16:55:13.570Z,18.03
2018-04-02T16:57:41.988Z,17.23
2018-04-02T17:00:10.495Z,16.33
2018-04-02T17:02:38.907Z,16.70
2018-04-02T17:05:07.326Z,18.63
2018-04-02T17:07:35.814Z,18.17
2018-04-02T17:10:04.249Z,19.07
2018-04-02T17:12:32.662Z,19.77
2018-04-02T17:15:01.130Z,23.67
2018-04-02T17:17:29.569Z,23.83
2018-04-02T17:19:57.985Z,28.10
2018-04-02T17:22:26.436Z,24.80
2018-04-02T17:24:54.845Z,27.97
2018-04-02T17:27:23.284Z,25.73
2018-04-02T17:29:52.021Z,26.43
2018-04-02T17:32:20.443Z,24.87
2018-04-02T17:34:48.849Z,33.97
2018-04-02T17:37:17.322Z,29.87
2018-04-02T17:39:45.738Z,31.63
2018-04-02T17:42:14.155Z,34.13
2018-04-02T17:44:42.622Z,36.40
2018-04-02T17:47:11.034Z,32.33
2018-04-02T17:49:39.452Z,32.30
2018-04-02T17:52:07.905Z,35.83
2018-04-02T17:54:36.316Z,32.27
2018-04-02T17:57:04.747Z,32.97
2018-04-02T17:59:33.234Z,31.70
2018-04-02T18:02:01.645Z,32.20
2018-04-02T18:04:30.050Z,34.10
2018-04-02T18:06:58.517Z,34.40
2018-04-02T18:09:26.925Z,35.53
2018-04-02T18:11:55.342Z,33.53
2018-04-02T18:14:23.790Z,40.87
2018-04-02T18:16:52.198Z,35.37
2018-04-02T18:19:20.605Z,38.03
2018-04-02T18:21:49.070Z,43.20
2018-04-02T18:24:17.489Z,40.83
2018-04-02T18:26:45.890Z,38.53
2018-04-02T18:29:14.358Z,42.70
2018-04-02T18:31:42.773Z,35.20
2018-04-02T18:34:11.182Z,36.80
2018-04-02T18:36:39.631Z,40.93
2018-04-02T18:39:08.068Z,40.17
2018-04-02T18:41:36.481Z,44.83
2018-04-02T18:44:04.943Z,41.20
2018-04-02T18:46:33.369Z,37.10
2018-04-02T18:49:01.778Z,35.53
2018-04-02T18:51:30.225Z,37.50
2018-04-02T18:53:58.630Z,37.20
2018-04-02T18:56:27.028Z,38.73
2018-04-02T18:58:55.482Z,35.97
2018-04-02T19:01:23.889Z,37.53
2018-04-02T19:03:52.306Z,34.40
2018-04-02T19:06:20.751Z,37.17
2018-04-02T19:08:49.150Z,39.80
2018-04-02T19:11:17.556Z,35.90
2018-04-02T19:13:46.003Z,38.63
2018-04-02T19:16:14.419Z,34.27
2018-04-02T19:18:42.832Z,35.00
2018-04-02T19:21:11.283Z,36.70
2018-04-02T19:23:39.702Z,34.47
2018-04-02T19:26:08.105Z,33.33
2018-04-02T19:28:36.550Z,27.77
2018-04-02T19:31:04.965Z,24.60
2018-04-02T19:33:33.373Z,25.57
2018-04-02T19:36:01.862Z,23.70
2018-04-02T19:38:30.291Z,20.47
2018-04-02T19:40:58.698Z,21.50
2018-04-02T19:43:27.134Z,15.57
2018-04-02T19:45:55.546Z,19.50
2018-04-02T19:48:23.963Z,18.53
2018-04-02T19:50:52.411Z,16.73
2018-04-02T19:53:20.853Z,18.43
2018-04-02T19:55:49.258Z,20.73
2018-04-02T19:58:17.726Z,13.00
2018-04-02T20:00:46.147Z,12.10
2018-04-02T20:03:14.567Z,12.07
2018-04-02T20:05:43.020Z,13.53
2018-04-02T20:08:11.422Z,13.00
2018-04-02T20:10:39.846Z,12.13
2018-04-02T20:13:08.287Z,8.80
2018-04-02T20:15:36.682Z,12.33
2018-04-02T20:18:05.099Z,12.10
2018-04-02T20:20:33.608Z,12.63
2018-04-02T20:23:02.020Z,12.67
2018-04-02T20:25:30.422Z,14.07
2018-04-02T20:27:58.876Z,9.47
2018-04-02T20:30:27.365Z,10.67
2018-04-02T20:32:55.801Z,11.77
2018-04-02T20:35:24.286Z,9.00
2018-04-02T20:37:52.685Z,9.57
2018-04-02T20:40:21.094Z,9.17
2018-04-02T20:42:49.538Z,11.73
2018-04-02T20:45:17.938Z,8.43
2018-04-02T20:47:46.355Z,9.43
2018-04-02T20:50:14.806Z,9.67
2018-04-02T20:52:43.203Z,9.87
2018-04-02T20:55:11.613Z,9.70
2018-04-02T20:57:40.062Z,10.73
2018-04-02T21:00:08.494Z,8.63
2018-04-02T21:02:36.900Z,8.80
2018-04-02T21:05:05.365Z,11.60
2018-04-02T21:07:33.758Z,8.90
2018-04-02T21:10:02.173Z,11.57
2018-04-02T21:12:30.630Z,8.50
2018-04-02T21:14:59.033Z,8.67
2018-04-02T21:17:27.504Z,10.40
2018-04-02T21:19:55.963Z,8.33
2018-04-02T21:22:24.390Z,7.97
2018-04-02T21:24:52.833Z,9.30
2018-04-02T21:27:21.493Z,8.20
2018-04-02T21:29:49.893Z,10.83
2018-04-02T21:32:18.298Z,9.70
2018-04-02T21:34:46.749Z,11.40
2018-04-02T21:37:15.154Z,9.63
2018-04-02T21:39:43.555Z,8.20
2018-04-02T21:42:12.005Z,9.33
2018-04-02T21:44:40.450Z,8.90
2018-04-02T21:47:08.885Z,8.43
2018-04-02T21:49:37.322Z,8.97
2018-04-02T21:52:05.722Z,9.20
2018-04-02T21:54:34.177Z,9.93
2018-04-02T21:57:02.637Z,7.70
2018-04-02T21:59:31.039Z,9.23
2018-04-02T22:01:59.437Z,8.70
2018-04-02T22:04:27.894Z,10.60
2018-04-02T22:07:05.266Z,9.10
2018-04-02T22:09:33.717Z,8.67
2018-04-02T22:12:02.122Z,8.70
2018-04-02T22:14:30.517Z,8.53
2018-04-02T22:16:58.977Z,9.03
2018-04-02T22:19:27.386Z,8.27
2018-04-02T22:21:55.794Z,8.07
2018-04-02T22:24:24.274Z,8.73
2018-04-02T22:26:52.674Z,8.33
2018-04-02T22:29:21.070Z,7.87
2018-04-02T22:31:49.517Z,8.77
2018-04-02T22:34:17.918Z,8.70
2018-04-02T22:36:46.343Z,10.87
2018-04-02T22:39:14.794Z,8.60
2018-04-02T22:41:43.194Z,8.77
2018-04-02T22:44:11.595Z,8.50
2018-04-02T22:46:40.195Z,8.17
2018-04-02T22:49:08.599Z,7.73
2018-04-02T22:51:36.994Z,9.07
2018-04-02T22:54:05.482Z,11.97
2018-04-02T22:56:33.881Z,8.10
2018-04-02T22:59:02.276Z,8.47
2018-04-02T23:01:30.730Z,9.13
2018-04-02T23:03:59.134Z,9.20
2018-04-02T23:06:27.529Z,10.23
2018-04-02T23:08:55.978Z,10.67
2018-04-02T23:11:24.409Z,9.63
2018-04-02T23:13:52.809Z,8.73
2018-04-02T23:16:21.261Z,10.20
2018-04-02T23:18:49.666Z,11.57
2018-04-02T23:21:18.058Z,9.57
2018-04-02T23:23:46.510Z,8.27
2018-04-02T23:26:14.898Z,8.33
2018-04-02T23:28:43.298Z,8.40
2018-04-02T23:31:11.736Z,7.53
2018-04-02T23:33:40.129Z,9.53
2018-04-02T23:36:08.521Z,8.93
2018-04-02T23:38:36.981Z,9.40
2018-04-02T23:41:06.289Z,9.00
2018-04-02T23:43:34.687Z,8.53
2018-04-02T23:46:03.146Z,10.70
2018-04-02T23:51:26.527Z,9.47
2018-04-02T23:53:54.925Z,10.40
2018-04-02T23:56:23.329Z,9.93
2018-04-02T23:58:51.767Z,10.83
